35.2°F
Current conditions from King Hill
Updated every 5 minutes
 
  Wednesday November 26, 2014

Station Historical Data
Daily Summary for October 15, 2011 Units:  Metric    English   Both
« Previous Day
Next Day »
Daily Weekly Monthly Yearly Custom
  High: Low: Average:
Temperature: 13.3 °C 7.7 °C 10.5 °C
Dew Point: 12.4 °C 4.6 °C 7.8 °C
Humidity: 95% 67% 84%
Wind Speed: 22.5km/h 1.6km/h 10.8km/h
Wind Gust: 45.1km/h - -
Wind- - SW
Pressure: 996.2 hPa 987.7 hPa -
Precipitation: 10.7 mm    
Historical Graphs
 
 
Tabular Data for October 15, 2011
Time Temperature Dew Point Pressure Wind Wind Speed Wind Gust Humidity Daily Rainfall
00:00 13.3 °C 12.4 °C 988 hPa WNW 12.9 km/h 29 km/h 94% 36.6 mm
00:05 12.9 °C 11.8 °C 988 hPa WNW 11.3 km/h 29 km/h 93% 0.5 mm
00:10 12.7 °C 11.6 °C 987.7 hPa West 4.8 km/h 24.1 km/h 93% 0.5 mm
00:15 12.7 °C 11.7 °C 987.7 hPa West 3.2 km/h 14.5 km/h 94% 0.8 mm
00:20 12.7 °C 11.7 °C 987.7 hPa WSW 4.8 km/h 9.7 km/h 94% 0.8 mm
00:30 12.7 °C 11.7 °C 987.7 hPa Calm   6.4 km/h 94% 0.8 mm
00:35 12.7 °C 11.7 °C 987.7 hPa WSW 3.2 km/h 12.9 km/h 94% 0.8 mm
00:40 12.7 °C 11.7 °C 987.7 hPa WNW 9.7 km/h 12.9 km/h 94% 1 mm
00:45 12.7 °C 11.7 °C 987.7 hPa West 1.6 km/h 12.9 km/h 94% 1 mm
00:50 12.7 °C 11.7 °C 987.7 hPa West 6.4 km/h 12.9 km/h 94% 1 mm
00:55 12.7 °C 11.7 °C 987.7 hPa WSW 3.2 km/h 9.7 km/h 94% 1 mm
01:00 12.7 °C 11.7 °C 987.7 hPa WSW 4.8 km/h 12.9 km/h 94% 1 mm
01:05 12.7 °C 11.7 °C 987.7 hPa WSW 3.2 km/h 12.9 km/h 94% 1 mm
01:10 12.7 °C 11.8 °C 987.7 hPa SW 3.2 km/h 11.3 km/h 94% 1 mm
01:15 12.7 °C 11.8 °C 987.7 hPa WSW 3.2 km/h 11.3 km/h 94% 1 mm
01:20 12.7 °C 11.7 °C 987.7 hPa SW 3.2 km/h 11.3 km/h 94% 1 mm
01:25 12.7 °C 11.7 °C 987.7 hPa Calm   11.3 km/h 94% 1 mm
01:30 12.6 °C 11.7 °C 987.7 hPa SW 4.8 km/h 11.3 km/h 94% 1 mm
01:35 12.6 °C 11.7 °C 988 hPa Calm   11.3 km/h 94% 1 mm
01:40 12.6 °C 11.7 °C 988 hPa SW 4.8 km/h 12.9 km/h 94% 1.3 mm
01:45 12.6 °C 11.6 °C 988 hPa WSW 8 km/h 19.3 km/h 94% 1.5 mm
01:50 12.4 °C 11.5 °C 988 hPa WSW 6.4 km/h 19.3 km/h 94% 1.8 mm
01:55 12.3 °C 11.4 °C 988 hPa WSW 6.4 km/h 16.1 km/h 94% 2 mm
02:00 12.3 °C 11.3 °C 988 hPa West 6.4 km/h 19.3 km/h 94% 2 mm
02:05 12.2 °C 11.3 °C 988 hPa WSW 6.4 km/h 19.3 km/h 94% 2 mm
02:10 12.2 °C 11.3 °C 988 hPa WSW 4.8 km/h 16.1 km/h 94% 2.3 mm
02:15 12.2 °C 11.3 °C 988 hPa WSW 1.6 km/h 14.5 km/h 94% 2.5 mm
02:20 12.2 °C 11.3 °C 988 hPa WSW 3.2 km/h 16.1 km/h 94% 2.5 mm
02:25 12.3 °C 11.3 °C 988 hPa SW 8 km/h 22.5 km/h 94% 2.8 mm
02:30 12.3 °C 11.4 °C 988 hPa WSW 9.7 km/h 24.1 km/h 94% 3 mm
02:35 12.3 °C 11.4 °C 988 hPa SW 6.4 km/h 25.7 km/h 94% 3 mm
02:40 12.2 °C 11.3 °C 988 hPa SW 8 km/h 25.7 km/h 94% 3 mm
02:45 12.1 °C 11.1 °C 988 hPa SW 8 km/h 24.1 km/h 94% 3.3 mm
02:50 12 °C 11.1 °C 988 hPa SW 4.8 km/h 24.1 km/h 94% 3.3 mm
02:55 11.9 °C 10.9 °C 988 hPa SW 12.9 km/h 20.9 km/h 94% 3.3 mm
03:00 11.8 °C 10.9 °C 988 hPa SW 8 km/h 22.5 km/h 94% 3.3 mm
03:05 11.8 °C 10.9 °C 988 hPa SW 9.7 km/h 24.1 km/h 94% 3.6 mm
03:10 11.8 °C 10.8 °C 988 hPa SW 9.7 km/h 24.1 km/h 94% 3.6 mm
03:15 11.8 °C 10.8 °C 988 hPa SW 11.3 km/h 22.5 km/h 94% 3.6 mm
03:20 11.8 °C 10.8 °C 988.4 hPa SSW 9.7 km/h 27.4 km/h 94% 3.6 mm
03:25 11.7 °C 10.9 °C 988.4 hPa SSW 9.7 km/h 27.4 km/h 95% 3.8 mm
03:30 11.7 °C 10.9 °C 988.4 hPa SW 16.1 km/h 30.6 km/h 95% 4.1 mm
03:35 11.7 °C 10.9 °C 988.4 hPa SW 11.3 km/h 32.2 km/h 95% 4.1 mm
03:45 11.6 °C 10.6 °C 988.7 hPa SW 11.3 km/h 25.7 km/h 94% 4.6 mm
03:50 11.5 °C 10.6 °C 988.7 hPa SW 9.7 km/h 27.4 km/h 94% 4.6 mm
03:55 11.5 °C 10.6 °C 988.7 hPa SW 11.3 km/h 27.4 km/h 94% 4.8 mm
04:00 11.5 °C 10.6 °C 989.1 hPa SSW 8 km/h 24.1 km/h 94% 5.1 mm
04:05 11.5 °C 10.6 °C 989.1 hPa SW 12.9 km/h 25.7 km/h 94% 5.1 mm
04:10 11.5 °C 10.6 °C 989.1 hPa SW 12.9 km/h 29 km/h 94% 5.3 mm
04:15 11.4 °C 10.5 °C 989.1 hPa SW 11.3 km/h 29 km/h 94% 5.6 mm
04:20 11.4 °C 10.4 °C 989.1 hPa SSW 6.4 km/h 29 km/h 94% 5.6 mm
04:25 11.3 °C 10.4 °C 989.4 hPa SW 4.8 km/h 29 km/h 94% 5.6 mm
04:30 11.3 °C 10.3 °C 989.4 hPa SW 11.3 km/h 24.1 km/h 94% 5.8 mm
04:35 11.2 °C 10.3 °C 989.7 hPa SW 11.3 km/h 20.9 km/h 94% 6.1 mm
04:40 11.2 °C 10.3 °C 989.7 hPa SW 8 km/h 20.9 km/h 94% 6.1 mm
04:45 11.2 °C 10.2 °C 989.7 hPa SW 8 km/h 19.3 km/h 94% 6.1 mm
04:50 11.2 °C 10.2 °C 990.1 hPa SW 9.7 km/h 24.1 km/h 94% 6.1 mm
04:55 11.2 °C 10.2 °C 989.7 hPa SW 8 km/h 24.1 km/h 94% 6.4 mm
05:00 11.2 °C 10.2 °C 990.1 hPa SW 9.7 km/h 20.9 km/h 94% 6.4 mm
05:05 11.1 °C 10.2 °C 990.1 hPa SSW 6.4 km/h 24.1 km/h 94% 6.6 mm
05:10 11.1 °C 10.2 °C 990.1 hPa SW 12.9 km/h 24.1 km/h 94% 6.6 mm
05:15 11.1 °C 10.1 °C 990.1 hPa SW 8 km/h 22.5 km/h 94% 6.6 mm
05:20 11.1 °C 10.1 °C 990.1 hPa SW 6.4 km/h 22.5 km/h 94% 6.6 mm
05:25 11 °C 10.1 °C 990.1 hPa SW 9.7 km/h 19.3 km/h 94% 6.9 mm
05:30 11 °C 10.1 °C 990.4 hPa SW 8 km/h 20.9 km/h 94% 7.1 mm
05:35 10.9 °C 10 °C 990.4 hPa SW 6.4 km/h 24.1 km/h 94% 7.1 mm
05:40 10.9 °C 9.9 °C 990.4 hPa SW 8 km/h 24.1 km/h 94% 7.4 mm
05:45 10.8 °C 9.9 °C 990.4 hPa SW 11.3 km/h 20.9 km/h 94% 7.6 mm
05:50 10.8 °C 9.8 °C 990.7 hPa SW 6.4 km/h 20.9 km/h 94% 7.6 mm
05:55 10.7 °C 9.8 °C 990.7 hPa SW 11.3 km/h 24.1 km/h 94% 7.6 mm
06:00 10.7 °C 9.7 °C 990.4 hPa SW 11.3 km/h 25.7 km/h 94% 7.9 mm
06:05 10.6 °C 9.7 °C 990.7 hPa SW 6.4 km/h 25.7 km/h 94% 8.1 mm
06:10 10.6 °C 9.6 °C 990.7 hPa SW 6.4 km/h 19.3 km/h 94% 8.1 mm
06:15 10.5 °C 9.6 °C 990.7 hPa SW 11.3 km/h 22.5 km/h 94% 8.4 mm
06:20 10.4 °C 9.5 °C 990.7 hPa SSW 11.3 km/h 22.5 km/h 94% 8.6 mm
06:25 10.4 °C 9.4 °C 990.7 hPa SW 8 km/h 20.9 km/h 94% 8.6 mm
06:30 10.3 °C 9.4 °C 990.7 hPa SW 9.7 km/h 20.9 km/h 94% 8.9 mm
06:35 10.3 °C 9.3 °C 990.7 hPa SW 9.7 km/h 24.1 km/h 94% 8.9 mm
06:40 10.2 °C 9.3 °C 990.7 hPa SW 6.4 km/h 25.7 km/h 94% 9.1 mm
06:45 10.2 °C 9.2 °C 991.1 hPa SW 8 km/h 25.7 km/h 94% 9.1 mm
06:50 10.1 °C 9.2 °C 991.1 hPa SSW 12.9 km/h 29 km/h 94% 9.1 mm
06:55 10 °C 8.9 °C 991.1 hPa SW 9.7 km/h 29 km/h 93% 9.1 mm
07:00 9.9 °C 8.9 °C 991.1 hPa SW 9.7 km/h 27.4 km/h 93% 9.4 mm
07:05 9.9 °C 8.8 °C 991.1 hPa SW 12.9 km/h 25.7 km/h 93% 9.4 mm
07:10 9.8 °C 8.8 °C 991.4 hPa SW 11.3 km/h 25.7 km/h 93% 9.4 mm
07:15 9.8 °C 8.7 °C 991.4 hPa SW 8 km/h 27.4 km/h 93% 9.4 mm
07:20 9.7 °C 8.7 °C 991.4 hPa SW 8 km/h 27.4 km/h 93% 9.7 mm
07:25 9.7 °C 8.7 °C 991.4 hPa SW 12.9 km/h 25.7 km/h 93% 9.7 mm
07:30 9.7 °C 8.7 °C 991.8 hPa SW 4.8 km/h 25.7 km/h 93% 9.7 mm
07:40 9.6 °C 8.4 °C 991.8 hPa SW 8 km/h 24.1 km/h 92% 9.7 mm
07:45 9.6 °C 8.4 °C 991.8 hPa SW 9.7 km/h 24.1 km/h 92% 9.7 mm
07:50 9.6 °C 8.3 °C 992.1 hPa SW 11.3 km/h 25.7 km/h 92% 9.7 mm
07:55 9.6 °C 8.3 °C 992.1 hPa SSW 9.7 km/h 25.7 km/h 92% 9.7 mm
08:00 9.5 °C 8.3 °C 992.1 hPa SW 11.3 km/h 24.1 km/h 92% 9.7 mm
08:05 9.5 °C 8.1 °C 992.4 hPa SSW 4.8 km/h 29 km/h 91% 9.7 mm
08:10 9.4 °C 8.1 °C 992.4 hPa WSW 6.4 km/h 29 km/h 91% 9.7 mm
08:15 9.4 °C 8.1 °C 992.4 hPa SSW 12.9 km/h 25.7 km/h 91% 9.7 mm
08:20 9.5 °C 7.9 °C 992.4 hPa SW 9.7 km/h 25.7 km/h 90% 9.7 mm
08:25 9.6 °C 8 °C 992.4 hPa SW 9.7 km/h 22.5 km/h 90% 9.7 mm
08:30 9.7 °C 7.9 °C 992.4 hPa SW 14.5 km/h 27.4 km/h 89% 9.7 mm
08:35 9.8 °C 7.9 °C 992.4 hPa SW 12.9 km/h 27.4 km/h 88% 9.7 mm
08:40 9.8 °C 7.7 °C 992.4 hPa SW 9.7 km/h 25.7 km/h 87% 9.7 mm
08:45 9.8 °C 7.6 °C 992.4 hPa SW 16.1 km/h 27.4 km/h 86% 9.7 mm
08:50 9.9 °C 7.6 °C 992.8 hPa SW 17.7 km/h 30.6 km/h 85% 9.7 mm
08:55 10.1 °C 7.5 °C 992.8 hPa SW 11.3 km/h 30.6 km/h 84% 9.7 mm
09:00 10.3 °C 7.9 °C 992.8 hPa SW 3.2 km/h 24.1 km/h 85% 9.7 mm
09:05 10.7 °C 8.1 °C 992.8 hPa SW 4.8 km/h 20.9 km/h 84% 9.7 mm
09:10 10.8 °C 7.7 °C 992.8 hPa SSW 12.9 km/h 20.9 km/h 81% 9.7 mm
09:15 10.9 °C 7.6 °C 992.8 hPa SW 11.3 km/h 20.9 km/h 80% 9.7 mm
09:20 11.1 °C 7.4 °C 993.1 hPa SW 9.7 km/h 25.7 km/h 78% 9.7 mm
09:25 11.2 °C 7.3 °C 993.1 hPa SSW 8 km/h 25.7 km/h 77% 9.7 mm
09:30 11.6 °C 7.5 °C 993.1 hPa SW 4.8 km/h 27.4 km/h 76% 9.7 mm
09:40 11.5 °C 6.6 °C 993.1 hPa SSW 14.5 km/h 24.1 km/h 72% 9.7 mm
09:45 11.2 °C 6.7 °C 993.1 hPa SSW 8 km/h 25.7 km/h 74% 9.7 mm
09:50 10.9 °C 6.6 °C 993.1 hPa SW 11.3 km/h 29 km/h 75% 9.7 mm
09:55 10.9 °C 6.9 °C 993.1 hPa SW 12.9 km/h 29 km/h 76% 9.7 mm
10:00 10.9 °C 6.8 °C 993.1 hPa SW 17.7 km/h 30.6 km/h 76% 9.7 mm
10:05 10.7 °C 6.8 °C 993.1 hPa SW 9.7 km/h 30.6 km/h 77% 9.7 mm
10:10 10.6 °C 7.1 °C 993.1 hPa SSW 8 km/h 30.6 km/h 79% 9.7 mm
10:15 10.5 °C 7 °C 993.1 hPa SSW 8 km/h 25.7 km/h 79% 9.7 mm
10:20 10.6 °C 7.3 °C 993.5 hPa SW 9.7 km/h 25.7 km/h 80% 9.7 mm
10:25 10.6 °C 7.3 °C 993.1 hPa SSW 4.8 km/h 24.1 km/h 80% 9.7 mm
10:30 10.8 °C 7.3 °C 993.1 hPa SW 9.7 km/h 24.1 km/h 79% 9.7 mm
10:35 10.9 °C 7.4 °C 993.1 hPa SSW 11.3 km/h 27.4 km/h 79% 9.7 mm
10:40 10.8 °C 7.1 °C 993.5 hPa SSW 14.5 km/h 30.6 km/h 78% 9.7 mm
10:45 10.6 °C 7.1 °C 993.5 hPa SW 9.7 km/h 30.6 km/h 79% 9.7 mm
10:50 10.4 °C 6.9 °C 993.5 hPa SSW 17.7 km/h 30.6 km/h 79% 9.7 mm
10:55 10.3 °C 6.8 °C 993.5 hPa SW 14.5 km/h 33.8 km/h 79% 9.7 mm
11:00 10.3 °C 6.8 °C 993.5 hPa SW 16.1 km/h 35.4 km/h 79% 9.7 mm
11:05 10.4 °C 6.9 °C 993.5 hPa SW 14.5 km/h 35.4 km/h 79% 9.7 mm
11:10 10.4 °C 6.9 °C 993.5 hPa SW 14.5 km/h 37 km/h 79% 9.7 mm
11:15 10.7 °C 7.2 °C 993.1 hPa SSW 14.5 km/h 37 km/h 79% 9.7 mm
11:20 11.2 °C 7.5 °C 993.1 hPa SSW 14.5 km/h 32.2 km/h 78% 9.7 mm
11:25 11.6 °C 7.7 °C 993.1 hPa SSW 16.1 km/h 33.8 km/h 77% 9.7 mm
11:30 11.7 °C 7.6 °C 993.1 hPa SSW 16.1 km/h 37 km/h 76% 9.7 mm
11:35 12 °C 7.5 °C 993.1 hPa SSW 19.3 km/h 37 km/h 74% 9.7 mm
11:40 12.2 °C 7.7 °C 993.1 hPa SSW 16.1 km/h 37 km/h 74% 9.7 mm
11:45 12.1 °C 7.6 °C 993.1 hPa SSW 14.5 km/h 35.4 km/h 74% 9.7 mm
11:50 11.7 °C 7.4 °C 993.1 hPa SW 12.9 km/h 35.4 km/h 75% 9.7 mm
11:55 11.8 °C 7.3 °C 993.1 hPa SW 12.9 km/h 30.6 km/h 74% 9.7 mm
12:00 12 °C 7.3 °C 993.1 hPa SSW 14.5 km/h 30.6 km/h 73% 9.7 mm
12:05 12.4 °C 7.6 °C 993.1 hPa SSW 12.9 km/h 30.6 km/h 72% 9.7 mm
12:10 12.4 °C 7.3 °C 992.8 hPa SSW 17.7 km/h 33.8 km/h 71% 9.7 mm
12:15 12.8 °C 7.4 °C 992.8 hPa SW 16.1 km/h 33.8 km/h 70% 9.7 mm
12:20 12.6 °C 7 °C 993.1 hPa SW 17.7 km/h 37 km/h 69% 9.7 mm
12:25 11.9 °C 6.7 °C 993.1 hPa SW 19.3 km/h 40.2 km/h 70% 9.7 mm
12:30 11.6 °C 6.6 °C 993.1 hPa SSW 16.1 km/h 40.2 km/h 71% 9.7 mm
12:35 11.8 °C 7.2 °C 992.8 hPa SSW 9.7 km/h 40.2 km/h 73% 9.7 mm
12:40 12.2 °C 7.1 °C 992.8 hPa SW 12.9 km/h 27.4 km/h 71% 9.7 mm
12:45 12.7 °C 7.6 °C 992.8 hPa SSW 9.7 km/h 32.2 km/h 71% 9.7 mm
12:50 12.7 °C 7.3 °C 992.8 hPa SW 12.9 km/h 32.2 km/h 70% 9.7 mm
12:55 12.4 °C 6.9 °C 992.8 hPa SW 12.9 km/h 32.2 km/h 69% 9.7 mm
13:00 12.3 °C 7.2 °C 992.8 hPa SW 12.9 km/h 27.4 km/h 71% 9.7 mm
13:05 12.2 °C 6.8 °C 992.8 hPa SW 12.9 km/h 29 km/h 70% 9.7 mm
13:10 12 °C 6.9 °C 992.8 hPa SW 16.1 km/h 29 km/h 71% 9.7 mm
13:15 12.3 °C 6.9 °C 992.4 hPa SSW 17.7 km/h 33.8 km/h 70% 9.7 mm
13:20 12.4 °C 6.5 °C 992.4 hPa SSW 22.5 km/h 35.4 km/h 67% 9.9 mm
13:30 12.3 °C 6.6 °C 992.8 hPa SW 9.7 km/h 43.5 km/h 68% 9.9 mm
13:35 12.2 °C 6.4 °C 992.8 hPa SW 16.1 km/h 29 km/h 68% 9.9 mm
13:45 11.9 °C 6.2 °C 992.8 hPa SW 11.3 km/h 32.2 km/h 68% 9.9 mm
13:50 11.6 °C 5.9 °C 992.8 hPa SW 12.9 km/h 30.6 km/h 68% 9.9 mm
13:55 11.4 °C 6.6 °C 992.8 hPa WSW 17.7 km/h 30.6 km/h 72% 9.9 mm
14:00 11.1 °C 7.1 °C 992.8 hPa SSW 19.3 km/h 33.8 km/h 76% 9.9 mm
14:05 10.7 °C 7.2 °C 992.8 hPa SSW 12.9 km/h 33.8 km/h 79% 9.9 mm
14:10 10.5 °C 7.2 °C 992.8 hPa SSW 12.9 km/h 33.8 km/h 80% 9.9 mm
14:15 10.6 °C 6.9 °C 992.8 hPa SW 14.5 km/h 30.6 km/h 78% 9.9 mm
14:20 10.4 °C 6.8 °C 993.1 hPa SW 9.7 km/h 30.6 km/h 78% 9.9 mm
14:25 10.3 °C 6.7 °C 993.1 hPa SSW 14.5 km/h 29 km/h 78% 9.9 mm
14:30 10.1 °C 6.6 °C 993.1 hPa SSW 11.3 km/h 29 km/h 79% 9.9 mm
14:35 9.8 °C 6.5 °C 993.1 hPa SSW 8 km/h 27.4 km/h 80% 9.9 mm
14:40 9.8 °C 6.9 °C 993.1 hPa SSW 4.8 km/h 27.4 km/h 82% 9.9 mm
14:45 10.3 °C 7 °C 993.1 hPa SW 11.3 km/h 20.9 km/h 80% 9.9 mm
14:50 10.4 °C 6.7 °C 993.1 hPa SW 9.7 km/h 19.3 km/h 78% 9.9 mm
14:55 10.4 °C 6.8 °C 993.1 hPa SW 9.7 km/h 22.5 km/h 78% 9.9 mm
15:00 10.7 °C 6.8 °C 993.1 hPa SW 9.7 km/h 32.2 km/h 77% 9.9 mm
15:05 10.9 °C 6.7 °C 992.8 hPa SSW 8 km/h 33.8 km/h 75% 9.9 mm
15:10 11.2 °C 6.5 °C 992.8 hPa SW 11.3 km/h 33.8 km/h 73% 9.9 mm
15:15 11.3 °C 6.6 °C 992.8 hPa SSW 16.1 km/h 32.2 km/h 73% 9.9 mm
15:20 11.2 °C 6.6 °C 992.8 hPa SSW 9.7 km/h 27.4 km/h 73% 9.9 mm
15:25 11.2 °C 7.2 °C 992.8 hPa SSW 4.8 km/h 27.4 km/h 76% 9.9 mm
15:30 11.2 °C 7.2 °C 992.8 hPa SSW 6.4 km/h 20.9 km/h 76% 9.9 mm
15:40 11.1 °C 7.4 °C 992.8 hPa Calm   22.5 km/h 78% 9.9 mm
15:45 10.9 °C 7.4 °C 992.8 hPa SSW 4.8 km/h 22.5 km/h 79% 9.9 mm
15:50 10.7 °C 7.2 °C 993.1 hPa SSW 11.3 km/h 20.9 km/h 79% 9.9 mm
15:55 10.3 °C 7.2 °C 993.1 hPa SW 11.3 km/h 24.1 km/h 81% 10.2 mm
16:00 10.1 °C 7.3 °C 992.8 hPa SSW 12.9 km/h 24.1 km/h 83% 10.2 mm
16:05 9.8 °C 7.3 °C 993.1 hPa SW 4.8 km/h 25.7 km/h 84% 10.2 mm
16:10 9.7 °C 7.1 °C 992.8 hPa SW 8 km/h 25.7 km/h 84% 10.2 mm
16:15 9.6 °C 7.2 °C 992.8 hPa SSW 3.2 km/h 22.5 km/h 85% 10.2 mm
16:20 9.7 °C 7.4 °C 993.1 hPa SSW 6.4 km/h 22.5 km/h 86% 10.2 mm
16:25 9.7 °C 7.4 °C 993.1 hPa SSW 4.8 km/h 20.9 km/h 86% 10.2 mm
16:35 9.6 °C 7.3 °C 993.1 hPa SW 8 km/h 19.3 km/h 86% 10.2 mm
16:40 9.6 °C 7.2 °C 993.1 hPa SSW 9.7 km/h 22.5 km/h 85% 10.2 mm
16:50 9.5 °C 7.1 °C 993.5 hPa SSW 11.3 km/h 24.1 km/h 85% 10.2 mm
16:55 9.4 °C 7.1 °C 993.1 hPa SSW 16.1 km/h 33.8 km/h 85% 10.2 mm
17:00 9.4 °C 7.2 °C 993.1 hPa SW 9.7 km/h 33.8 km/h 86% 10.4 mm
17:05 9.3 °C 7.1 °C 993.1 hPa SW 11.3 km/h 24.1 km/h 86% 10.4 mm
17:10 9.3 °C 7.1 °C 993.5 hPa SW 14.5 km/h 27.4 km/h 86% 10.4 mm
17:15 9.3 °C 7.1 °C 993.5 hPa SW 4.8 km/h 27.4 km/h 86% 10.4 mm
17:20 9.3 °C 6.9 °C 993.5 hPa SW 12.9 km/h 24.1 km/h 85% 10.4 mm
17:25 9.3 °C 6.7 °C 993.5 hPa SW 11.3 km/h 25.7 km/h 84% 10.4 mm
17:30 9.4 °C 6.8 °C 993.5 hPa SSW 11.3 km/h 27.4 km/h 84% 10.4 mm
17:35 9.4 °C 6.7 °C 993.8 hPa SW 9.7 km/h 27.4 km/h 83% 10.4 mm
17:40 9.4 °C 6.8 °C 993.8 hPa SW 9.7 km/h 22.5 km/h 84% 10.4 mm
17:45 9.4 °C 6.8 °C 993.8 hPa SW 8 km/h 22.5 km/h 84% 10.4 mm
17:50 9.4 °C 6.7 °C 993.8 hPa SW 12.9 km/h 25.7 km/h 83% 10.4 mm
17:55 9.3 °C 6.6 °C 993.8 hPa SW 9.7 km/h 25.7 km/h 83% 10.4 mm
18:00 9.3 °C 6.6 °C 993.8 hPa SW 6.4 km/h 25.7 km/h 83% 10.4 mm
18:05 9.3 °C 6.6 °C 994.1 hPa SW 11.3 km/h 19.3 km/h 83% 10.4 mm
18:10 9.3 °C 6.4 °C 994.1 hPa SW 12.9 km/h 22.5 km/h 82% 10.4 mm
18:15 9.3 °C 6.4 °C 994.1 hPa SW 3.2 km/h 25.7 km/h 82% 10.4 mm
18:20 9.3 °C 6.2 °C 994.1 hPa SW 9.7 km/h 25.7 km/h 81% 10.4 mm
18:25 9.3 °C 6.2 °C 994.5 hPa SW 9.7 km/h 19.3 km/h 81% 10.4 mm
18:30 9.2 °C 6.1 °C 994.5 hPa SW 9.7 km/h 19.3 km/h 81% 10.4 mm
18:35 9.3 °C 6 °C 994.5 hPa SW 8 km/h 30.6 km/h 80% 10.4 mm
18:40 9.3 °C 6 °C 994.5 hPa SW 8 km/h 32.2 km/h 80% 10.4 mm
18:45 9.2 °C 5.8 °C 994.5 hPa SW 8 km/h 32.2 km/h 79% 10.4 mm
18:50 9.2 °C 5.7 °C 994.5 hPa SW 8 km/h 24.1 km/h 79% 10.4 mm
18:55 9.2 °C 5.7 °C 994.8 hPa SW 4.8 km/h 24.1 km/h 79% 10.4 mm
19:00 9.2 °C 5.7 °C 994.8 hPa SW 4.8 km/h 24.1 km/h 79% 10.4 mm
19:05 9.1 °C 5.7 °C 994.8 hPa SSW 9.7 km/h 22.5 km/h 79% 10.4 mm
19:10 9.1 °C 5.7 °C 994.8 hPa SW 12.9 km/h 27.4 km/h 79% 10.4 mm
19:15 9.1 °C 5.5 °C 994.8 hPa SW 11.3 km/h 27.4 km/h 78% 10.4 mm
19:20 9.1 °C 5.4 °C 994.8 hPa SSW 11.3 km/h 22.5 km/h 78% 10.4 mm
19:25 9.1 °C 5.2 °C 994.8 hPa SSW 14.5 km/h 25.7 km/h 77% 10.4 mm
19:30 9.1 °C 5.2 °C 994.8 hPa SSW 12.9 km/h 25.7 km/h 77% 10.4 mm
19:35 9.1 °C 5.2 °C 994.8 hPa SW 12.9 km/h 22.5 km/h 77% 10.4 mm
19:40 9 °C 5.2 °C 994.8 hPa SSW 6.4 km/h 22.5 km/h 77% 10.4 mm
19:45 9 °C 5.4 °C 994.8 hPa SSW 11.3 km/h 27.4 km/h 78% 10.4 mm
19:50 8.9 °C 5.3 °C 994.8 hPa SSW 6.4 km/h 27.4 km/h 78% 10.4 mm
19:55 8.9 °C 5.4 °C 994.8 hPa SSW 1.6 km/h 22.5 km/h 79% 10.4 mm
20:00 8.9 °C 5.6 °C 994.8 hPa SSW 9.7 km/h 25.7 km/h 80% 10.4 mm
20:05 8.8 °C 5.6 °C 994.8 hPa SW 12.9 km/h 25.7 km/h 80% 10.4 mm
20:10 8.8 °C 5.7 °C 994.8 hPa SSW 14.5 km/h 24.1 km/h 81% 10.4 mm
20:15 8.8 °C 5.8 °C 994.8 hPa SSW 11.3 km/h 25.7 km/h 81% 10.4 mm
20:20 8.8 °C 5.7 °C 994.8 hPa SSW 11.3 km/h 27.4 km/h 81% 10.7 mm
20:25 8.7 °C 5.4 °C 994.8 hPa SW 8 km/h 29 km/h 80% 10.7 mm
20:35 8.6 °C 5.3 °C 994.8 hPa SW 14.5 km/h 27.4 km/h 80% 10.7 mm
20:40 8.7 °C 5.4 °C 994.8 hPa SSW 11.3 km/h 33.8 km/h 80% 10.7 mm
20:45 8.7 °C 5.4 °C 994.8 hPa SSW 11.3 km/h 33.8 km/h 80% 10.7 mm
20:50 8.7 °C 5.4 °C 994.8 hPa SSW 12.9 km/h 33.8 km/h 80% 10.7 mm
20:55 8.6 °C 5.3 °C 994.8 hPa SSW 17.7 km/h 33.8 km/h 80% 10.7 mm
21:00 8.7 °C 5.4 °C 994.8 hPa SW 14.5 km/h 33.8 km/h 80% 10.7 mm
21:05 8.6 °C 5.3 °C 994.8 hPa SSW 11.3 km/h 33.8 km/h 80% 10.7 mm
21:10 8.6 °C 5.3 °C 995.1 hPa SSW 12.9 km/h 29 km/h 80% 10.7 mm
21:15 8.6 °C 5.3 °C 995.1 hPa SSW 12.9 km/h 29 km/h 80% 10.7 mm
21:20 8.7 °C 5.2 °C 995.1 hPa SW 12.9 km/h 29 km/h 79% 10.7 mm
21:25 8.6 °C 5.2 °C 995.1 hPa SSW 14.5 km/h 30.6 km/h 79% 10.7 mm
21:30 8.7 °C 5.2 °C 995.1 hPa SSW 11.3 km/h 30.6 km/h 79% 10.7 mm
21:35 8.7 °C 5.1 °C 995.1 hPa SW 11.3 km/h 27.4 km/h 78% 10.7 mm
21:40 8.8 °C 4.9 °C 995.1 hPa SW 11.3 km/h 24.1 km/h 77% 10.7 mm
21:45 8.8 °C 4.8 °C 995.1 hPa SSW 16.1 km/h 37 km/h 76% 10.7 mm
21:50 8.9 °C 4.7 °C 995.1 hPa SW 9.7 km/h 37 km/h 75% 10.7 mm
21:55 8.9 °C 4.8 °C 995.1 hPa SSW 14.5 km/h 32.2 km/h 75% 10.7 mm
22:00 9 °C 4.6 °C 995.1 hPa SSW 14.5 km/h 32.2 km/h 74% 10.7 mm
22:05 8.9 °C 4.6 °C 995.1 hPa SW 22.5 km/h 37 km/h 74% 10.7 mm
22:10 9.1 °C 4.7 °C 995.1 hPa SSW 19.3 km/h 45.1 km/h 74% 10.7 mm
22:15 9 °C 4.6 °C 995.1 hPa SW 16.1 km/h 45.1 km/h 74% 10.7 mm
22:20 8.9 °C 4.8 °C 995.1 hPa SW 14.5 km/h 35.4 km/h 75% 10.7 mm
22:25 8.9 °C 4.7 °C 995.1 hPa SW 20.9 km/h 32.2 km/h 75% 10.7 mm
22:30 8.8 °C 4.7 °C 995.5 hPa SSW 16.1 km/h 37 km/h 75% 10.7 mm
22:35 8.8 °C 4.8 °C 995.5 hPa SW 12.9 km/h 38.6 km/h 76% 10.7 mm
22:40 8.7 °C 4.7 °C 995.5 hPa SW 19.3 km/h 38.6 km/h 76% 10.7 mm
22:45 8.7 °C 4.7 °C 995.5 hPa SW 19.3 km/h 35.4 km/h 76% 10.7 mm
22:50 8.8 °C 4.8 °C 995.5 hPa SW 19.3 km/h 38.6 km/h 76% 10.7 mm
22:55 8.7 °C 4.7 °C 995.5 hPa SW 19.3 km/h 38.6 km/h 76% 10.7 mm
23:00 8.6 °C 4.8 °C 995.5 hPa SSW 14.5 km/h 35.4 km/h 77% 10.7 mm
23:05 8.6 °C 4.8 °C 995.5 hPa SSW 16.1 km/h 37 km/h 77% 10.7 mm
23:10 8.5 °C 4.7 °C 995.5 hPa SSW 22.5 km/h 37 km/h 77% 10.7 mm
23:15 8.4 °C 4.7 °C 995.5 hPa SW 12.9 km/h 37 km/h 77% 10.7 mm
23:20 8.4 °C 4.6 °C 995.8 hPa SW 19.3 km/h 35.4 km/h 77% 10.7 mm
23:25 8.3 °C 4.7 °C 995.8 hPa SW 16.1 km/h 33.8 km/h 78% 10.7 mm
23:30 8.2 °C 4.6 °C 996.2 hPa SW 11.3 km/h 30.6 km/h 78% 10.7 mm
23:35 8.1 °C 4.6 °C 996.2 hPa SW 20.9 km/h 32.2 km/h 79% 10.7 mm
23:40 7.9 °C 4.9 °C 996.2 hPa SW 8 km/h 32.2 km/h 81% 10.7 mm
23:45 7.8 °C 4.8 °C 996.2 hPa SW 12.9 km/h 30.6 km/h 81% 10.7 mm
23:50 7.8 °C 4.9 °C 996.2 hPa SW 11.3 km/h 30.6 km/h 82% 10.7 mm
23:55 7.7 °C 4.8 °C 996.2 hPa SW 17.7 km/h 37 km/h 82% 10.7 mm
Westford Weather
Compliments of Weather Underground

 
 
Current Radar Loop:

Copyright © WestfordWeather.net 2007-2014. All rights reserved.